createdAt,value
2023-03-26T00:00:13.593Z,990.71
2023-03-26T00:01:14.062Z,990.70
2023-03-26T00:02:19.164Z,990.70
2023-03-26T00:03:13.179Z,990.72
2023-03-26T00:04:13.261Z,990.73
2023-03-26T00:05:13.199Z,990.75
2023-03-26T00:06:28.794Z,990.74
2023-03-26T00:07:12.956Z,990.72
2023-03-26T00:08:12.908Z,990.75
2023-03-26T00:09:13.272Z,990.79
2023-03-26T00:10:13.582Z,990.78
2023-03-26T00:11:19.474Z,990.79
2023-03-26T00:12:12.854Z,990.79
2023-03-26T00:13:13.864Z,990.80
2023-03-26T00:14:14.225Z,990.81
2023-03-26T00:15:13.596Z,990.80
2023-03-26T00:16:14.202Z,990.79
2023-03-26T00:17:13.543Z,990.74
2023-03-26T00:18:14.708Z,990.81
2023-03-26T00:19:13.648Z,990.78
2023-03-26T00:20:13.655Z,990.79
2023-03-26T00:21:13.617Z,990.81
2023-03-26T00:22:13.699Z,990.80
2023-03-26T00:23:13.755Z,990.82
2023-03-26T00:24:13.669Z,990.80
2023-03-26T00:25:13.706Z,990.79
2023-03-26T00:26:13.659Z,990.79
2023-03-26T00:27:13.639Z,990.77
2023-03-26T00:28:13.664Z,990.74
2023-03-26T00:29:13.618Z,990.72
2023-03-26T00:30:13.604Z,990.72
2023-03-26T00:31:13.826Z,990.79
2023-03-26T00:32:13.130Z,990.71
2023-03-26T00:33:13.073Z,990.74
2023-03-26T00:34:13.004Z,990.71
2023-03-26T00:35:12.907Z,990.71
2023-03-26T00:36:13.012Z,990.75
2023-03-26T00:37:13.073Z,990.69
2023-03-26T00:38:13.311Z,990.61
2023-03-26T00:39:13.675Z,990.66
2023-03-26T00:40:13.791Z,990.65
2023-03-26T00:41:13.653Z,990.65
2023-03-26T00:42:14.029Z,990.66
2023-03-26T00:43:13.355Z,990.62
2023-03-26T00:44:13.493Z,990.58
2023-03-26T00:45:13.963Z,990.61
2023-03-26T00:46:13.206Z,990.59
2023-03-26T00:47:13.585Z,990.56
2023-03-26T00:48:13.631Z,990.59
2023-03-26T00:49:13.655Z,990.57
2023-03-26T00:50:13.606Z,990.58
2023-03-26T00:51:13.633Z,990.58
2023-03-26T00:52:13.488Z,990.56
2023-03-26T00:53:13.516Z,990.55
2023-03-26T00:54:13.367Z,990.52
2023-03-26T00:55:13.533Z,990.54
2023-03-26T00:56:13.461Z,990.52
2023-03-26T00:57:20.200Z,990.51
2023-03-26T00:58:13.003Z,990.51
2023-03-26T00:59:12.975Z,990.43
2023-03-26T01:00:13.018Z,990.49
2023-03-26T01:01:13.054Z,990.45
2023-03-26T01:02:12.990Z,990.43
2023-03-26T01:03:19.193Z,990.41
2023-03-26T01:04:13.254Z,990.39
2023-03-26T01:05:13.485Z,990.42
2023-03-26T01:06:13.668Z,990.38
2023-03-26T01:07:13.702Z,990.35
2023-03-26T01:08:13.669Z,990.34
2023-03-26T01:09:13.529Z,990.39
2023-03-26T01:10:13.401Z,990.37
2023-03-26T01:11:13.491Z,990.43
2023-03-26T01:12:13.725Z,990.33
2023-03-26T01:13:13.897Z,990.38
2023-03-26T01:14:12.740Z,990.34
2023-03-26T01:15:13.634Z,990.33
2023-03-26T01:16:13.978Z,990.32
2023-03-26T01:17:13.348Z,990.29
2023-03-26T01:18:18.343Z,990.31
2023-03-26T01:19:13.251Z,990.30
2023-03-26T01:20:13.353Z,990.25
2023-03-26T01:21:13.269Z,990.27
2023-03-26T01:22:13.418Z,990.24
2023-03-26T01:23:13.373Z,990.17
2023-03-26T01:24:13.585Z,990.22
2023-03-26T01:25:13.678Z,990.21
2023-03-26T01:26:13.861Z,990.27
2023-03-26T01:27:13.759Z,990.23
2023-03-26T01:28:13.767Z,990.22
2023-03-26T01:29:13.667Z,990.23
2023-03-26T01:30:13.736Z,990.22
2023-03-26T01:31:13.779Z,990.14
2023-03-26T01:32:14.108Z,990.15
2023-03-26T01:33:13.214Z,990.15
2023-03-26T01:34:13.567Z,990.15
2023-03-26T01:35:13.484Z,990.14
2023-03-26T01:36:13.294Z,990.18
2023-03-26T01:37:13.467Z,990.16
2023-03-26T01:38:13.468Z,990.17
2023-03-26T01:39:13.654Z,990.15
2023-03-26T01:40:13.595Z,990.10
2023-03-26T01:41:13.506Z,990.12
2023-03-26T01:42:13.597Z,990.11
2023-03-26T01:43:13.414Z,990.12
2023-03-26T01:44:13.735Z,990.05
2023-03-26T01:45:13.721Z,990.07
2023-03-26T01:46:14.659Z,990.11
2023-03-26T01:47:13.795Z,990.05
2023-03-26T01:48:13.698Z,990.00
2023-03-26T01:49:13.922Z,990.02
2023-03-26T01:50:12.832Z,990.01
2023-03-26T01:51:13.741Z,990.03
2023-03-26T01:52:13.792Z,990.03
2023-03-26T01:53:13.681Z,989.97
2023-03-26T01:54:13.751Z,989.97
2023-03-26T01:55:13.804Z,989.94
2023-03-26T01:56:14.166Z,989.96
2023-03-26T01:57:13.388Z,989.96
2023-03-26T01:58:13.337Z,989.92
2023-03-26T01:59:13.139Z,989.93
2023-03-26T02:00:13.060Z,989.88
2023-03-26T02:01:13.098Z,989.87
2023-03-26T02:02:13.256Z,989.87
2023-03-26T02:03:13.265Z,989.88
2023-03-26T02:04:13.364Z,989.86
2023-03-26T02:05:18.304Z,989.85
2023-03-26T02:06:13.224Z,989.84
2023-03-26T02:07:13.213Z,989.79
2023-03-26T02:08:13.036Z,989.79
2023-03-26T02:09:12.870Z,989.83
2023-03-26T02:10:13.799Z,989.76
2023-03-26T02:11:13.728Z,989.76
2023-03-26T02:12:13.619Z,989.76
2023-03-26T02:13:13.523Z,989.75
2023-03-26T02:14:13.510Z,989.73
2023-03-26T02:15:13.676Z,989.71
2023-03-26T02:16:13.856Z,989.69
2023-03-26T02:17:13.947Z,989.67
2023-03-26T02:18:12.856Z,989.70
2023-03-26T02:19:13.833Z,989.64
2023-03-26T02:20:18.746Z,989.63
2023-03-26T02:21:13.758Z,989.66
2023-03-26T02:22:13.693Z,989.59
2023-03-26T02:23:13.625Z,989.55
2023-03-26T02:24:13.631Z,989.61
2023-03-26T02:25:13.817Z,989.61
2023-03-26T02:26:19.209Z,989.58
2023-03-26T02:27:13.187Z,989.56
2023-03-26T02:28:13.056Z,989.53
2023-03-26T02:29:12.897Z,989.51
2023-03-26T02:30:12.930Z,989.48
2023-03-26T02:31:13.030Z,989.50
2023-03-26T02:32:13.196Z,989.49
2023-03-26T02:33:13.149Z,989.43
2023-03-26T02:34:13.084Z,989.40
2023-03-26T02:35:13.376Z,989.38
2023-03-26T02:36:13.405Z,989.33
2023-03-26T02:37:13.922Z,989.32
2023-03-26T02:38:13.157Z,989.36
2023-03-26T02:39:13.492Z,989.34
2023-03-26T02:40:13.670Z,989.29
2023-03-26T02:41:13.976Z,989.28
2023-03-26T02:42:13.296Z,989.27
2023-03-26T02:43:13.345Z,989.32
2023-03-26T02:44:13.429Z,989.29
2023-03-26T02:45:13.747Z,989.30
2023-03-26T02:46:13.770Z,989.30
2023-03-26T02:47:13.828Z,989.29
2023-03-26T02:48:13.864Z,989.30
2023-03-26T02:49:12.857Z,989.31
2023-03-26T02:50:13.769Z,989.33
2023-03-26T02:51:14.293Z,989.28
2023-03-26T02:52:13.663Z,989.26
2023-03-26T02:53:14.026Z,989.24
2023-03-26T02:54:13.237Z,989.27
2023-03-26T02:55:13.196Z,989.24
2023-03-26T02:56:13.208Z,989.27
2023-03-26T02:57:13.200Z,989.24
2023-03-26T02:58:13.092Z,989.23
2023-03-26T02:59:13.320Z,989.27
2023-03-26T03:00:13.270Z,989.25
2023-03-26T03:01:13.285Z,989.24
2023-03-26T03:02:18.357Z,989.24
2023-03-26T03:03:13.394Z,989.24
2023-03-26T03:04:13.422Z,989.17
2023-03-26T03:05:13.581Z,989.23
2023-03-26T03:06:13.834Z,989.18
2023-03-26T03:07:14.274Z,989.21
2023-03-26T03:08:13.528Z,989.20
2023-03-26T03:09:13.870Z,989.14
2023-03-26T03:10:13.839Z,989.17
2023-03-26T03:11:12.804Z,989.18
2023-03-26T03:12:17.893Z,989.15
2023-03-26T03:13:12.750Z,989.17
2023-03-26T03:14:13.632Z,989.11
2023-03-26T03:15:14.123Z,989.13
2023-03-26T03:16:13.066Z,989.10
2023-03-26T03:17:13.258Z,989.07
2023-03-26T03:18:13.153Z,989.03
2023-03-26T03:19:13.005Z,989.01
2023-03-26T03:20:12.987Z,989.01
2023-03-26T03:21:12.834Z,988.99
2023-03-26T03:22:13.971Z,988.97
2023-03-26T03:23:13.134Z,988.97
2023-03-26T03:24:13.294Z,989.01
2023-03-26T03:25:13.434Z,988.95
2023-03-26T03:26:13.308Z,988.92
2023-03-26T03:27:13.245Z,988.90
2023-03-26T03:28:13.277Z,988.89
2023-03-26T03:29:13.334Z,988.82
2023-03-26T03:30:13.642Z,988.82
2023-03-26T03:31:13.841Z,988.79
2023-03-26T03:32:12.760Z,988.79
2023-03-26T03:33:13.635Z,988.84
2023-03-26T03:34:13.480Z,988.80
2023-03-26T03:35:13.788Z,988.77
2023-03-26T03:36:20.292Z,988.77
2023-03-26T03:37:13.583Z,988.78
2023-03-26T03:38:13.665Z,988.77
2023-03-26T03:39:13.550Z,988.73
2023-03-26T03:40:13.507Z,988.71
2023-03-26T03:41:13.837Z,988.71
2023-03-26T03:42:14.064Z,988.69
2023-03-26T03:43:13.228Z,988.70
2023-03-26T03:44:13.521Z,988.66
2023-03-26T03:45:13.606Z,988.64
2023-03-26T03:46:13.765Z,988.65
2023-03-26T03:47:13.746Z,988.66
2023-03-26T03:48:13.662Z,988.65
2023-03-26T03:49:13.493Z,988.64
2023-03-26T03:50:13.657Z,988.65
2023-03-26T03:51:13.806Z,988.62
2023-03-26T03:52:13.904Z,988.65
2023-03-26T03:53:12.741Z,988.64
2023-03-26T03:54:13.656Z,988.60
2023-03-26T03:55:13.586Z,988.63
2023-03-26T03:56:13.705Z,988.60
2023-03-26T03:57:13.627Z,988.58
2023-03-26T03:58:13.535Z,988.58
2023-03-26T03:59:13.444Z,988.59
2023-03-26T04:00:13.505Z,988.59
2023-03-26T04:01:13.810Z,988.55
2023-03-26T04:02:13.751Z,988.57
2023-03-26T04:03:13.811Z,988.54
2023-03-26T04:04:13.876Z,988.53
2023-03-26T04:05:12.808Z,988.54
2023-03-26T04:06:13.969Z,988.55
2023-03-26T04:07:12.977Z,988.51
2023-03-26T04:08:13.270Z,988.51
2023-03-26T04:09:13.180Z,988.50
2023-03-26T04:10:13.281Z,988.48
2023-03-26T04:11:13.092Z,988.42
2023-03-26T04:12:13.041Z,988.45
2023-03-26T04:13:13.100Z,988.46
2023-03-26T04:14:13.076Z,988.40
2023-03-26T04:15:13.100Z,988.43
2023-03-26T04:16:13.129Z,988.39
2023-03-26T04:17:13.198Z,988.43
2023-03-26T04:18:13.069Z,988.41
2023-03-26T04:19:12.947Z,988.37
2023-03-26T04:20:13.017Z,988.39
2023-03-26T04:21:13.017Z,988.34
2023-03-26T04:22:13.271Z,988.30
2023-03-26T04:23:13.716Z,988.27
2023-03-26T04:24:13.811Z,988.26
2023-03-26T04:25:13.932Z,988.24
2023-03-26T04:26:12.847Z,988.22
2023-03-26T04:27:13.886Z,988.23
2023-03-26T04:28:13.083Z,988.19
2023-03-26T04:29:13.199Z,988.22
2023-03-26T04:30:13.094Z,988.21
2023-03-26T04:31:13.333Z,988.18
2023-03-26T04:32:13.311Z,988.17
2023-03-26T04:33:13.297Z,988.16
2023-03-26T04:34:13.436Z,988.13
2023-03-26T04:35:13.496Z,988.10
2023-03-26T04:36:13.424Z,988.16
2023-03-26T04:37:13.537Z,988.12
2023-03-26T04:38:13.466Z,988.09
2023-03-26T04:39:13.837Z,988.08
2023-03-26T04:40:14.061Z,988.06
2023-03-26T04:41:12.967Z,988.04
2023-03-26T04:42:12.873Z,988.03
2023-03-26T04:43:13.825Z,988.00
2023-03-26T04:44:13.984Z,988.00
2023-03-26T04:45:12.976Z,988.00
2023-03-26T04:46:12.927Z,987.96
2023-03-26T04:47:12.820Z,987.94
2023-03-26T04:48:13.689Z,987.91
2023-03-26T04:49:13.961Z,987.89
2023-03-26T04:50:13.695Z,987.88
2023-03-26T04:51:13.515Z,987.89
2023-03-26T04:52:13.341Z,987.86
2023-03-26T04:53:13.422Z,987.81
2023-03-26T04:54:13.654Z,987.83
2023-03-26T04:55:13.552Z,987.83
2023-03-26T04:56:13.454Z,987.82
2023-03-26T04:57:13.530Z,987.77
2023-03-26T04:58:13.467Z,987.74
2023-03-26T04:59:13.445Z,987.74
2023-03-26T05:00:13.559Z,987.74
2023-03-26T05:01:13.646Z,987.74
2023-03-26T05:02:13.903Z,987.76
2023-03-26T05:03:12.904Z,987.73
2023-03-26T05:04:13.106Z,987.71
2023-03-26T05:05:13.349Z,987.72
2023-03-26T05:06:13.172Z,987.75
2023-03-26T05:07:14.162Z,987.75
2023-03-26T05:08:13.015Z,987.73
2023-03-26T05:09:12.808Z,987.73
2023-03-26T05:10:13.906Z,987.72
2023-03-26T05:11:13.421Z,987.70
2023-03-26T05:12:13.526Z,987.71
2023-03-26T05:13:13.575Z,987.69
2023-03-26T05:14:13.501Z,987.64
2023-03-26T05:15:13.483Z,987.66
2023-03-26T05:16:13.518Z,987.64
2023-03-26T05:17:13.427Z,987.63
2023-03-26T05:18:13.668Z,987.59
2023-03-26T05:19:13.651Z,987.57
2023-03-26T05:20:13.750Z,987.60
2023-03-26T05:21:13.935Z,987.58
2023-03-26T05:22:12.928Z,987.56
2023-03-26T05:23:12.984Z,987.54
2023-03-26T05:24:12.823Z,987.56
2023-03-26T05:25:13.802Z,987.54
2023-03-26T05:26:13.740Z,987.50
2023-03-26T05:27:13.643Z,987.49
2023-03-26T05:28:13.560Z,987.48
2023-03-26T05:29:13.480Z,987.45
2023-03-26T05:30:13.396Z,987.47
2023-03-26T05:31:13.430Z,987.46
2023-03-26T05:32:13.711Z,987.42
2023-03-26T05:33:13.925Z,987.41
2023-03-26T05:34:13.341Z,987.40
2023-03-26T05:35:13.497Z,987.39
2023-03-26T05:36:13.522Z,987.39
2023-03-26T05:37:13.443Z,987.39
2023-03-26T05:38:13.449Z,987.38
2023-03-26T05:39:13.480Z,987.38
2023-03-26T05:40:13.372Z,987.33
2023-03-26T05:41:13.481Z,987.31
2023-03-26T05:42:13.794Z,987.31
2023-03-26T05:43:13.834Z,987.29
2023-03-26T05:44:13.849Z,987.27
2023-03-26T05:45:13.841Z,987.25
2023-03-26T05:46:13.762Z,987.24
2023-03-26T05:47:13.670Z,987.24
2023-03-26T05:48:13.586Z,987.21
2023-03-26T05:49:13.648Z,987.19
2023-03-26T05:50:13.486Z,987.22
2023-03-26T05:51:13.305Z,987.15
2023-03-26T05:52:13.253Z,987.12
2023-03-26T05:53:13.197Z,987.14
2023-03-26T05:54:13.283Z,987.14
2023-03-26T05:55:13.616Z,987.10
2023-03-26T05:56:13.423Z,987.10
2023-03-26T05:57:13.424Z,987.10
2023-03-26T05:58:13.621Z,987.13
2023-03-26T05:59:13.698Z,987.10
2023-03-26T06:00:13.871Z,987.07
2023-03-26T06:01:12.951Z,987.07
2023-03-26T06:02:12.870Z,987.03
2023-03-26T06:03:13.184Z,987.00
2023-03-26T06:04:13.418Z,987.04
2023-03-26T06:05:14.070Z,987.06
2023-03-26T06:06:12.930Z,987.02
2023-03-26T06:07:13.005Z,987.01
2023-03-26T06:08:13.457Z,987.00
2023-03-26T06:09:13.379Z,986.98
2023-03-26T06:10:17.980Z,986.98
2023-03-26T06:11:12.881Z,986.90
2023-03-26T06:12:13.300Z,986.94
2023-03-26T06:13:13.606Z,986.91
2023-03-26T06:14:13.695Z,986.86
2023-03-26T06:15:14.740Z,986.86
2023-03-26T06:16:27.148Z,986.86
2023-03-26T06:17:13.259Z,986.86
2023-03-26T06:18:13.703Z,986.81
2023-03-26T06:19:13.826Z,986.80
2023-03-26T06:20:14.048Z,986.80
2023-03-26T06:21:13.115Z,986.79
2023-03-26T06:22:13.237Z,986.77
2023-03-26T06:23:13.193Z,986.76
2023-03-26T06:24:13.093Z,986.75
2023-03-26T06:25:12.993Z,986.75
2023-03-26T06:26:13.041Z,986.72
2023-03-26T06:27:12.938Z,986.72
2023-03-26T06:28:12.980Z,986.71
2023-03-26T06:29:12.980Z,986.67
2023-03-26T06:30:13.015Z,986.67
2023-03-26T06:31:13.301Z,986.65
2023-03-26T06:32:19.615Z,986.69
2023-03-26T06:33:13.334Z,986.67
2023-03-26T06:34:13.478Z,986.65
2023-03-26T06:35:13.571Z,986.68
2023-03-26T06:36:14.029Z,986.63
2023-03-26T06:37:13.168Z,986.68
2023-03-26T06:38:13.215Z,986.69
2023-03-26T06:39:13.142Z,986.68
2023-03-26T06:40:14.176Z,986.75
2023-03-26T06:41:14.012Z,986.72
2023-03-26T06:42:13.495Z,986.70
2023-03-26T06:43:13.781Z,986.73
2023-03-26T06:44:13.643Z,986.79
2023-03-26T06:45:13.738Z,986.76
2023-03-26T06:46:14.063Z,986.79
2023-03-26T06:47:12.999Z,986.75
2023-03-26T06:48:12.871Z,986.78
2023-03-26T06:49:13.715Z,986.80
2023-03-26T06:50:13.649Z,986.78
2023-03-26T06:51:13.598Z,986.82
2023-03-26T06:52:13.583Z,986.82
2023-03-26T06:53:13.432Z,986.80
2023-03-26T06:54:13.273Z,986.80
2023-03-26T06:55:13.349Z,986.82
2023-03-26T06:56:13.426Z,986.82
2023-03-26T06:57:13.489Z,986.80
2023-03-26T06:58:13.758Z,986.76
2023-03-26T06:59:13.774Z,986.76
2023-03-26T07:00:13.680Z,986.78
2023-03-26T07:01:13.820Z,986.76
2023-03-26T07:02:13.987Z,986.76
2023-03-26T07:03:12.949Z,986.74
2023-03-26T07:04:12.853Z,986.71
2023-03-26T07:05:12.836Z,986.74
2023-03-26T07:06:13.913Z,986.73
2023-03-26T07:07:12.809Z,986.74
2023-03-26T07:08:13.762Z,986.74
2023-03-26T07:09:13.707Z,986.71
2023-03-26T07:10:13.857Z,986.72
2023-03-26T07:11:13.852Z,986.67
2023-03-26T07:12:14.154Z,986.65
2023-03-26T07:13:13.104Z,986.64
2023-03-26T07:14:13.084Z,986.65
2023-03-26T07:15:13.117Z,986.62
2023-03-26T07:16:13.377Z,986.62
2023-03-26T07:17:43.161Z,986.62
2023-03-26T07:18:13.024Z,986.62
2023-03-26T07:19:14.895Z,986.61
2023-03-26T07:20:13.129Z,986.58
2023-03-26T07:21:13.193Z,986.55
2023-03-26T07:22:13.093Z,986.57
2023-03-26T07:23:12.931Z,986.57
2023-03-26T07:24:13.053Z,986.52
2023-03-26T07:25:13.191Z,986.50
2023-03-26T07:26:13.083Z,986.52
2023-03-26T07:27:13.022Z,986.49
2023-03-26T07:28:12.828Z,986.51
2023-03-26T07:29:13.743Z,986.48
2023-03-26T07:30:13.990Z,986.45
2023-03-26T07:31:13.053Z,986.47
2023-03-26T07:32:13.137Z,986.46
2023-03-26T07:33:13.103Z,986.44
2023-03-26T07:34:13.595Z,986.42
2023-03-26T07:35:13.822Z,986.43
2023-03-26T07:36:13.755Z,986.39
2023-03-26T07:37:13.806Z,986.39
2023-03-26T07:38:13.705Z,986.36
2023-03-26T07:39:13.663Z,986.36
2023-03-26T07:40:13.544Z,986.39
2023-03-26T07:41:13.534Z,986.37
2023-03-26T07:42:18.329Z,986.36
2023-03-26T07:43:13.211Z,986.35
2023-03-26T07:44:13.388Z,986.31
2023-03-26T07:45:13.363Z,986.32
2023-03-26T07:46:13.528Z,986.28
2023-03-26T07:47:13.561Z,986.29
2023-03-26T07:48:13.489Z,986.26
2023-03-26T07:49:13.310Z,986.28
2023-03-26T07:50:13.226Z,986.25
2023-03-26T07:51:13.429Z,986.27
2023-03-26T07:52:13.821Z,986.25
2023-03-26T07:53:13.961Z,986.27
2023-03-26T07:54:12.876Z,986.26
2023-03-26T07:55:12.846Z,986.21
2023-03-26T07:56:14.076Z,986.22
2023-03-26T07:57:13.440Z,986.20
2023-03-26T07:58:13.573Z,986.20
2023-03-26T07:59:13.713Z,986.17
2023-03-26T08:00:13.631Z,986.17
2023-03-26T08:01:13.617Z,986.18
2023-03-26T08:02:13.871Z,986.14
2023-03-26T08:03:14.079Z,986.19
2023-03-26T08:04:24.163Z,986.15
2023-03-26T08:05:13.463Z,986.12
2023-03-26T08:06:13.366Z,986.10
2023-03-26T08:07:13.890Z,986.14
2023-03-26T08:08:13.010Z,986.09
2023-03-26T08:09:12.950Z,986.09
2023-03-26T08:10:13.130Z,986.09
2023-03-26T08:11:13.472Z,986.10
2023-03-26T08:12:13.534Z,986.07
2023-03-26T08:13:13.638Z,986.09
2023-03-26T08:14:13.448Z,986.06
2023-03-26T08:15:13.430Z,986.05
2023-03-26T08:16:13.354Z,986.03
2023-03-26T08:17:13.327Z,986.07
2023-03-26T08:18:13.469Z,986.01
2023-03-26T08:19:13.351Z,986.01
2023-03-26T08:20:13.244Z,986.01
2023-03-26T08:21:13.432Z,985.96
2023-03-26T08:22:13.609Z,985.97
2023-03-26T08:23:13.718Z,985.95
2023-03-26T08:24:13.788Z,985.99
2023-03-26T08:25:54.657Z,986.00
2023-03-26T08:26:14.348Z,985.94
2023-03-26T08:27:13.311Z,985.96
2023-03-26T08:28:13.318Z,985.97
2023-03-26T08:29:13.384Z,985.92
2023-03-26T08:30:13.583Z,985.97
2023-03-26T08:31:13.739Z,985.93
2023-03-26T08:32:13.771Z,985.92
2023-03-26T08:33:13.925Z,985.92
2023-03-26T08:34:13.040Z,985.89
2023-03-26T08:35:13.205Z,985.90
2023-03-26T08:36:13.132Z,985.86
2023-03-26T08:37:13.011Z,985.88
2023-03-26T08:38:17.978Z,985.88
2023-03-26T08:39:12.885Z,985.89
2023-03-26T08:40:12.851Z,985.91
2023-03-26T08:41:13.765Z,985.91
2023-03-26T08:42:13.643Z,985.89
2023-03-26T08:43:13.528Z,985.88
2023-03-26T08:44:13.479Z,985.88
2023-03-26T08:45:13.523Z,985.86
2023-03-26T08:46:13.636Z,985.84
2023-03-26T08:47:13.784Z,985.86
2023-03-26T08:48:13.798Z,985.88
2023-03-26T08:49:14.895Z,985.85
2023-03-26T08:50:13.153Z,985.83
2023-03-26T08:51:13.239Z,985.85
2023-03-26T08:52:13.535Z,985.79
2023-03-26T08:53:13.413Z,985.79
2023-03-26T08:54:13.229Z,985.78
2023-03-26T08:55:13.777Z,985.81
2023-03-26T08:56:13.848Z,985.83
2023-03-26T08:57:13.680Z,985.83
2023-03-26T08:58:13.928Z,985.79
2023-03-26T08:59:13.347Z,985.80
2023-03-26T09:00:13.350Z,985.83
2023-03-26T09:01:13.422Z,985.79
2023-03-26T09:02:13.361Z,985.81
2023-03-26T09:03:13.994Z,985.81
2023-03-26T09:04:12.995Z,985.81
2023-03-26T09:05:12.937Z,985.83
2023-03-26T09:06:12.985Z,985.81
2023-03-26T09:07:13.379Z,985.80
2023-03-26T09:08:13.877Z,985.81
2023-03-26T09:09:19.033Z,985.81
2023-03-26T09:10:13.383Z,985.78
2023-03-26T09:11:13.232Z,985.78
2023-03-26T09:12:13.189Z,985.81
2023-03-26T09:13:13.481Z,985.80
2023-03-26T09:14:13.282Z,985.81
2023-03-26T09:15:13.150Z,985.77
2023-03-26T09:16:13.046Z,985.79
2023-03-26T09:17:12.907Z,985.74
2023-03-26T09:18:13.666Z,985.73
2023-03-26T09:19:13.845Z,985.72
2023-03-26T09:20:13.605Z,985.76
2023-03-26T09:21:13.539Z,985.76
2023-03-26T09:22:13.488Z,985.72
2023-03-26T09:23:14.657Z,985.74
2023-03-26T09:24:13.162Z,985.73
2023-03-26T09:25:13.140Z,985.71
2023-03-26T09:26:13.163Z,985.75
2023-03-26T09:27:13.106Z,985.73
2023-03-26T09:28:13.421Z,985.75
2023-03-26T09:29:13.636Z,985.74
2023-03-26T09:30:13.685Z,985.72
2023-03-26T09:31:13.639Z,985.72
2023-03-26T09:32:13.684Z,985.70
2023-03-26T09:33:13.743Z,985.72
2023-03-26T09:34:13.889Z,985.70
2023-03-26T09:35:14.238Z,985.69
2023-03-26T09:36:13.530Z,985.69
2023-03-26T09:37:18.623Z,985.67
2023-03-26T09:38:13.611Z,985.67
2023-03-26T09:39:13.816Z,985.66
2023-03-26T09:40:13.740Z,985.67
2023-03-26T09:41:14.140Z,985.67
2023-03-26T09:42:13.131Z,985.65
2023-03-26T09:43:13.130Z,985.73
2023-03-26T09:44:13.166Z,985.68
2023-03-26T09:45:13.089Z,985.65
2023-03-26T09:46:13.250Z,985.67
2023-03-26T09:47:13.186Z,985.66
2023-03-26T09:48:13.400Z,985.64
2023-03-26T09:49:13.283Z,985.67
2023-03-26T09:50:13.170Z,985.64
2023-03-26T09:51:13.241Z,985.66
2023-03-26T09:52:13.104Z,985.66
2023-03-26T09:53:13.009Z,985.64
2023-03-26T09:54:12.832Z,985.64
2023-03-26T09:55:13.892Z,985.65
2023-03-26T09:56:12.752Z,985.64
2023-03-26T09:57:13.793Z,985.67
2023-03-26T09:58:13.774Z,985.62
2023-03-26T09:59:14.067Z,985.64
2023-03-26T10:00:12.978Z,985.64
2023-03-26T10:01:13.189Z,985.62
2023-03-26T10:02:13.427Z,985.62
2023-03-26T10:03:13.915Z,985.64
2023-03-26T10:04:12.768Z,985.61
2023-03-26T10:05:13.966Z,985.62
2023-03-26T10:06:13.175Z,985.59
2023-03-26T10:07:13.194Z,985.60
2023-03-26T10:08:13.427Z,985.60
2023-03-26T10:09:13.563Z,985.60
2023-03-26T10:10:13.443Z,985.61
2023-03-26T10:11:13.788Z,985.57
2023-03-26T10:12:14.158Z,985.54
2023-03-26T10:13:14.954Z,985.59
2023-03-26T10:14:13.141Z,985.56
2023-03-26T10:15:13.063Z,985.56
2023-03-26T10:16:12.979Z,985.58
2023-03-26T10:17:13.002Z,985.56
2023-03-26T10:18:26.608Z,985.58
2023-03-26T10:19:13.472Z,985.53
2023-03-26T10:20:13.444Z,985.55
2023-03-26T10:21:13.385Z,985.52
2023-03-26T10:22:13.421Z,985.49
2023-03-26T10:23:13.513Z,985.52
2023-03-26T10:24:13.648Z,985.48
2023-03-26T10:25:13.613Z,985.51
2023-03-26T10:26:13.445Z,985.46
2023-03-26T10:27:13.376Z,985.50
2023-03-26T10:28:13.280Z,985.47
2023-03-26T10:29:13.225Z,985.49
2023-03-26T10:30:13.110Z,985.47
2023-03-26T10:31:13.225Z,985.47
2023-03-26T10:32:13.258Z,985.47
2023-03-26T10:33:13.173Z,985.42
2023-03-26T10:34:28.601Z,985.44
2023-03-26T10:35:13.472Z,985.40
2023-03-26T10:36:13.525Z,985.42
2023-03-26T10:37:13.865Z,985.38
2023-03-26T10:38:14.115Z,985.36
2023-03-26T10:39:36.274Z,985.39
2023-03-26T10:40:13.170Z,985.36
2023-03-26T10:41:13.371Z,985.41
2023-03-26T10:42:13.500Z,985.41
2023-03-26T10:43:13.476Z,985.41
2023-03-26T10:44:13.432Z,985.40
2023-03-26T10:45:13.418Z,985.35
2023-03-26T10:46:13.723Z,985.38
2023-03-26T10:47:13.901Z,985.35
2023-03-26T10:48:12.924Z,985.35
2023-03-26T10:49:12.768Z,985.38
2023-03-26T10:50:15.032Z,985.37
2023-03-26T10:51:13.264Z,985.38
2023-03-26T10:52:13.301Z,985.36
2023-03-26T10:53:13.186Z,985.38
2023-03-26T10:54:13.130Z,985.37
2023-03-26T10:55:13.298Z,985.36
2023-03-26T10:56:13.317Z,985.35
2023-03-26T10:57:13.378Z,985.31
2023-03-26T10:58:13.490Z,985.34
2023-03-26T10:59:13.533Z,985.38
2023-03-26T11:00:13.722Z,985.34
2023-03-26T11:01:14.033Z,985.36
2023-03-26T11:02:13.122Z,985.36
2023-03-26T11:03:13.274Z,985.30
2023-03-26T11:04:13.352Z,985.32
2023-03-26T11:05:13.885Z,985.33
2023-03-26T11:06:13.197Z,985.27
2023-03-26T11:07:13.517Z,985.28
2023-03-26T11:08:13.486Z,985.28
2023-03-26T11:09:13.416Z,985.24
2023-03-26T11:10:13.574Z,985.23
2023-03-26T11:11:13.573Z,985.28
2023-03-26T11:12:27.348Z,985.29
2023-03-26T11:13:13.532Z,985.30
2023-03-26T11:14:18.979Z,985.30
2023-03-26T11:15:13.639Z,985.31
2023-03-26T11:16:13.761Z,985.31
2023-03-26T11:17:14.890Z,985.26
2023-03-26T11:18:12.976Z,985.32
2023-03-26T11:19:13.116Z,985.29
2023-03-26T11:20:13.043Z,985.28
2023-03-26T11:21:18.904Z,985.25
2023-03-26T11:22:13.713Z,985.28
2023-03-26T11:23:13.638Z,985.28
2023-03-26T11:24:15.042Z,985.30
2023-03-26T11:25:12.954Z,985.26
2023-03-26T11:26:12.931Z,985.30
2023-03-26T11:27:17.460Z,985.27
2023-03-26T11:28:14.006Z,985.26
2023-03-26T11:29:32.235Z,985.24
2023-03-26T11:30:13.163Z,985.28
2023-03-26T11:31:13.444Z,985.26
2023-03-26T11:32:13.671Z,985.27
2023-03-26T11:33:13.852Z,985.28
2023-03-26T11:34:14.095Z,985.26
2023-03-26T11:35:13.096Z,985.28
2023-03-26T11:36:13.634Z,985.28
2023-03-26T11:37:13.677Z,985.25
2023-03-26T11:38:13.613Z,985.26
2023-03-26T11:39:13.498Z,985.26
2023-03-26T11:40:13.544Z,985.25
2023-03-26T11:41:13.463Z,985.26
2023-03-26T11:42:13.660Z,985.24
2023-03-26T11:43:13.543Z,985.21
2023-03-26T11:44:13.434Z,985.21
2023-03-26T11:45:18.430Z,985.22
2023-03-26T11:46:13.336Z,985.22
2023-03-26T11:47:13.258Z,985.18
2023-03-26T11:48:13.421Z,985.19
2023-03-26T11:49:13.452Z,985.19
2023-03-26T11:50:18.382Z,985.19
2023-03-26T11:51:13.396Z,985.17
2023-03-26T11:52:13.358Z,985.17
2023-03-26T11:53:13.278Z,985.14
2023-03-26T11:54:13.488Z,985.18
2023-03-26T11:55:13.535Z,985.11
2023-03-26T11:56:13.497Z,985.12
2023-03-26T11:57:13.696Z,985.10
2023-03-26T11:58:13.676Z,985.15
2023-03-26T11:59:13.977Z,985.15
2023-03-26T12:00:12.909Z,985.13
2023-03-26T12:01:13.121Z,985.09
2023-03-26T12:02:13.186Z,985.12
2023-03-26T12:03:13.555Z,985.12
2023-03-26T12:04:13.952Z,985.12
2023-03-26T12:05:13.395Z,985.13
2023-03-26T12:06:13.376Z,985.09
2023-03-26T12:07:13.266Z,985.07
2023-03-26T12:08:13.107Z,985.08
2023-03-26T12:09:13.149Z,985.05
2023-03-26T12:10:15.526Z,985.09
2023-03-26T12:11:13.144Z,985.08
2023-03-26T12:12:13.145Z,985.02
2023-03-26T12:13:13.153Z,985.06
2023-03-26T12:14:13.233Z,985.06
2023-03-26T12:15:13.251Z,985.05
2023-03-26T12:16:13.225Z,985.04
2023-03-26T12:17:13.339Z,985.05
2023-03-26T12:18:13.347Z,985.03
2023-03-26T12:19:13.281Z,985.04
2023-03-26T12:20:13.320Z,985.06
2023-03-26T12:21:13.300Z,985.05
2023-03-26T12:22:13.266Z,984.99
2023-03-26T12:23:13.282Z,985.01
2023-03-26T12:24:13.252Z,985.02
2023-03-26T12:25:13.363Z,985.03
2023-03-26T12:26:13.337Z,985.04
2023-03-26T12:27:13.540Z,984.97
2023-03-26T12:28:13.578Z,984.99